createdAt,value
2023-06-07T00:01:26.997Z,99789.53
2023-06-07T00:03:55.287Z,99784.00
2023-06-07T00:06:23.435Z,99784.78
2023-06-07T00:08:51.580Z,99785.16
2023-06-07T00:11:22.403Z,99785.16
2023-06-07T00:13:50.985Z,99787.47
2023-06-07T00:16:19.705Z,99784.66
2023-06-07T00:18:47.833Z,99785.00
2023-06-07T00:21:15.987Z,99780.28
2023-06-07T00:23:44.222Z,99776.00
2023-06-07T00:26:12.374Z,99785.75
2023-06-07T00:28:41.971Z,99784.97
2023-06-07T00:31:10.188Z,99782.56
2023-06-07T00:33:38.338Z,99788.03
2023-06-07T00:36:07.008Z,99789.16
2023-06-07T00:38:35.133Z,99795.47
2023-06-07T00:41:03.167Z,99788.84
2023-06-07T00:43:31.235Z,99783.72
2023-06-07T00:46:01.032Z,99787.25
2023-06-07T00:48:29.853Z,99785.25
2023-06-07T00:50:58.087Z,99786.41
2023-06-07T00:53:26.515Z,99783.31
2023-06-07T00:55:54.697Z,99779.84
2023-06-07T00:58:23.469Z,99781.38
2023-06-07T01:00:51.861Z,99779.78
2023-06-07T01:03:23.450Z,99780.94
2023-06-07T01:05:52.086Z,99781.25
2023-06-07T01:08:21.456Z,99781.19
2023-06-07T01:10:50.608Z,99778.53
2023-06-07T01:13:19.338Z,99770.31
2023-06-07T01:15:48.177Z,99767.53
2023-06-07T01:18:16.858Z,99774.97
2023-06-07T01:20:56.018Z,99772.22
2023-06-07T01:23:31.023Z,99769.47
2023-06-07T01:25:59.930Z,99776.81
2023-06-07T01:28:31.162Z,99777.28
2023-06-07T01:31:02.083Z,99769.50
2023-06-07T01:33:31.458Z,99776.88
2023-06-07T01:36:02.125Z,99781.50
2023-06-07T01:38:34.687Z,99772.47
2023-06-07T01:41:03.887Z,99777.53
2023-06-07T01:43:33.017Z,99777.56
2023-06-07T01:46:01.401Z,99762.69
2023-06-07T01:48:29.519Z,99765.38
2023-06-07T01:50:57.708Z,99768.84
2023-06-07T01:53:26.005Z,99762.59
2023-06-07T01:56:15.873Z,99763.69
2023-06-07T01:58:56.252Z,99764.09
2023-06-07T02:01:32.906Z,99764.47
2023-06-07T02:04:03.919Z,99764.13
2023-06-07T02:06:34.129Z,99766.84
2023-06-07T02:09:08.512Z,99763.72
2023-06-07T02:11:40.437Z,99771.19
2023-06-07T02:14:09.690Z,99772.00
2023-06-07T02:16:39.275Z,99771.66
2023-06-07T02:19:08.395Z,99778.75
2023-06-07T02:21:37.870Z,99769.03
2023-06-07T02:24:08.435Z,99771.00
2023-06-07T02:26:38.329Z,99770.25
2023-06-07T02:29:06.390Z,99768.72
2023-06-07T02:31:34.529Z,99772.19
2023-06-07T02:34:02.676Z,99766.69
2023-06-07T02:36:34.672Z,99766.22
2023-06-07T02:39:03.455Z,99768.94
2023-06-07T02:41:31.752Z,99765.78
2023-06-07T02:44:01.307Z,99768.09
2023-06-07T02:46:29.757Z,99768.03
2023-06-07T02:48:58.426Z,99759.44
2023-06-07T02:51:27.334Z,99771.13
2023-06-07T02:53:55.869Z,99772.75
2023-06-07T02:56:25.684Z,99764.53
2023-06-07T02:58:53.898Z,99770.00
2023-06-07T03:01:23.667Z,99765.34
2023-06-07T03:03:51.805Z,99772.88
2023-06-07T03:06:20.754Z,99769.75
2023-06-07T03:08:48.914Z,99768.19
2023-06-07T03:11:16.970Z,99767.44
2023-06-07T03:13:45.039Z,99761.63
2023-06-07T03:16:13.606Z,99759.69
2023-06-07T03:18:43.133Z,99760.94
2023-06-07T03:21:12.707Z,99761.47
2023-06-07T03:23:41.525Z,99768.59
2023-06-07T03:26:11.447Z,99763.09
2023-06-07T03:28:39.764Z,99767.75
2023-06-07T03:31:07.815Z,99761.59
2023-06-07T03:33:36.379Z,99764.41
2023-06-07T03:36:09.018Z,99766.81
2023-06-07T03:38:37.972Z,99767.25
2023-06-07T03:41:06.240Z,99767.31
2023-06-07T03:43:34.813Z,99766.19
2023-06-07T03:46:03.028Z,99767.47
2023-06-07T03:48:31.362Z,99764.34
2023-06-07T03:51:01.259Z,99761.22
2023-06-07T03:53:30.835Z,99769.06
2023-06-07T03:55:58.905Z,99762.81
2023-06-07T03:58:27.807Z,99762.47
2023-06-07T04:00:56.127Z,99768.34
2023-06-07T04:03:26.065Z,99770.78
2023-06-07T04:05:54.240Z,99773.91
2023-06-07T04:08:22.343Z,99771.59
2023-06-07T04:10:52.383Z,99768.09
2023-06-07T04:13:21.043Z,99769.28
2023-06-07T04:15:49.694Z,99774.38
2023-06-07T04:18:18.415Z,99781.78
2023-06-07T04:20:46.855Z,99776.28
2023-06-07T04:23:15.381Z,99778.66
2023-06-07T04:25:43.668Z,99777.44
2023-06-07T04:28:13.446Z,99769.94
2023-06-07T04:30:42.235Z,99781.66
2023-06-07T04:33:13.668Z,99776.44
2023-06-07T04:35:44.239Z,99776.78
2023-06-07T04:38:13.370Z,99781.47
2023-06-07T04:40:43.769Z,99782.66
2023-06-07T04:43:14.145Z,99789.66
2023-06-07T04:45:42.720Z,99786.44
2023-06-07T04:48:12.907Z,99782.13
2023-06-07T04:50:42.425Z,99784.41
2023-06-07T04:53:11.931Z,99794.81
2023-06-07T04:55:42.969Z,99787.63
2023-06-07T04:58:11.103Z,99791.53
2023-06-07T05:00:40.899Z,99790.59
2023-06-07T05:03:09.793Z,99783.84
2023-06-07T05:05:38.205Z,99790.94
2023-06-07T05:08:07.238Z,99792.66
2023-06-07T05:10:35.383Z,99787.13
2023-06-07T05:13:03.642Z,99789.47
2023-06-07T05:15:32.974Z,99798.91
2023-06-07T05:18:03.435Z,99793.56
2023-06-07T05:20:34.111Z,99798.63
2023-06-07T05:23:03.990Z,99792.25
2023-06-07T05:25:32.444Z,99795.25
2023-06-07T05:28:12.556Z,99791.63
2023-06-07T05:30:42.510Z,99791.31
2023-06-07T05:33:12.102Z,99791.63
2023-06-07T05:35:40.274Z,99788.06
2023-06-07T05:38:09.642Z,99789.19
2023-06-07T05:40:37.795Z,99791.16
2023-06-07T05:43:06.094Z,99789.06
2023-06-07T05:45:34.144Z,99791.84
2023-06-07T05:48:02.333Z,99789.41
2023-06-07T05:50:31.967Z,99785.72
2023-06-07T05:53:00.385Z,99794.59
2023-06-07T05:55:30.047Z,99791.88
2023-06-07T05:57:58.908Z,99794.19
2023-06-07T06:00:27.192Z,99791.56
2023-06-07T06:02:55.489Z,99796.84
2023-06-07T06:05:29.156Z,99797.88
2023-06-07T06:07:59.637Z,99800.19
2023-06-07T06:10:28.072Z,99812.06
2023-06-07T06:12:57.153Z,99800.94
2023-06-07T06:15:25.311Z,99794.97
2023-06-07T06:17:55.551Z,99806.34
2023-06-07T06:20:24.057Z,99790.69
2023-06-07T06:22:52.816Z,99795.59
2023-06-07T06:25:22.455Z,99793.38
2023-06-07T06:27:50.827Z,99788.81
2023-06-07T06:30:19.032Z,99791.03
2023-06-07T06:32:47.223Z,99786.53
2023-06-07T06:35:15.427Z,99788.25
2023-06-07T06:37:43.692Z,99790.84
2023-06-07T06:40:12.803Z,99792.22
2023-06-07T06:42:42.263Z,99793.44
2023-06-07T06:45:11.694Z,99789.94
2023-06-07T06:47:43.088Z,99789.09
2023-06-07T06:50:30.203Z,99789.44
2023-06-07T06:53:00.209Z,99790.50
2023-06-07T06:55:28.505Z,99792.19
2023-06-07T06:58:03.022Z,99781.84
2023-06-07T07:00:33.017Z,99790.34
2023-06-07T07:03:01.205Z,99774.81
2023-06-07T07:05:30.636Z,99780.00
2023-06-07T07:07:59.025Z,99787.00
2023-06-07T07:10:27.148Z,99782.72
2023-06-07T07:12:55.291Z,99786.91
2023-06-07T07:15:25.201Z,99783.97
2023-06-07T07:17:56.270Z,99786.28
2023-06-07T07:20:24.789Z,99784.59
2023-06-07T07:22:53.343Z,99787.19
2023-06-07T07:25:21.773Z,99775.56
2023-06-07T07:27:49.855Z,99781.56
2023-06-07T07:30:17.999Z,99788.56
2023-06-07T07:32:50.487Z,99786.78
2023-06-07T07:35:20.105Z,99775.41
2023-06-07T07:37:48.317Z,99780.66
2023-06-07T07:40:16.406Z,99783.50
2023-06-07T07:42:44.522Z,99776.00
2023-06-07T07:45:13.158Z,99783.63
2023-06-07T07:47:41.474Z,99777.31
2023-06-07T07:50:11.784Z,99780.00
2023-06-07T07:52:39.896Z,99779.34
2023-06-07T07:55:10.340Z,99774.91
2023-06-07T07:57:38.360Z,99775.72
2023-06-07T08:00:10.589Z,99779.41
2023-06-07T08:02:39.056Z,99772.69
2023-06-07T08:05:08.084Z,99784.63
2023-06-07T08:07:37.775Z,99776.66
2023-06-07T08:10:07.100Z,99787.41
2023-06-07T08:12:35.598Z,99770.31
2023-06-07T08:15:03.827Z,99763.84
2023-06-07T08:17:32.185Z,99769.78
2023-06-07T08:20:00.308Z,99775.72
2023-06-07T08:22:28.573Z,99767.88
2023-06-07T08:24:58.141Z,99765.34
2023-06-07T08:27:26.201Z,99766.03
2023-06-07T08:29:54.534Z,99768.56
2023-06-07T08:32:23.031Z,99770.41
2023-06-07T08:34:51.780Z,99771.81
2023-06-07T08:37:19.866Z,99763.91
2023-06-07T08:39:48.101Z,99762.13
2023-06-07T08:42:17.651Z,99758.31
2023-06-07T08:44:46.101Z,99763.75
2023-06-07T08:47:15.461Z,99769.78
2023-06-07T08:49:45.753Z,99758.97
2023-06-07T08:52:16.664Z,99762.56
2023-06-07T08:54:48.073Z,99759.94
2023-06-07T08:57:18.907Z,99753.25
2023-06-07T08:59:48.648Z,99757.13
2023-06-07T09:02:17.739Z,99754.53
2023-06-07T09:04:47.147Z,99759.97
2023-06-07T09:07:15.371Z,99743.78
2023-06-07T09:09:44.849Z,99743.25
2023-06-07T09:12:13.402Z,99753.19
2023-06-07T09:14:43.130Z,99746.06
2023-06-07T09:17:11.377Z,99733.91
2023-06-07T09:19:41.341Z,99738.50
2023-06-07T09:22:10.574Z,99732.16
2023-06-07T09:24:40.209Z,99729.63
2023-06-07T09:27:09.490Z,99728.50
2023-06-07T09:29:43.406Z,99722.75
2023-06-07T09:32:21.273Z,99729.28
2023-06-07T09:34:52.128Z,99729.44
2023-06-07T09:37:22.972Z,99736.34
2023-06-07T09:39:53.675Z,99728.28
2023-06-07T09:42:22.412Z,99727.53
2023-06-07T09:44:52.706Z,99721.34
2023-06-07T09:47:22.784Z,99722.31
2023-06-07T09:49:56.383Z,99719.38
2023-06-07T09:52:25.442Z,99725.28
2023-06-07T09:54:54.275Z,99727.06
2023-06-07T09:57:33.241Z,99728.56
2023-06-07T10:00:11.965Z,99721.41
2023-06-07T10:02:40.211Z,99717.59
2023-06-07T10:05:08.819Z,99715.25
2023-06-07T10:07:40.620Z,99710.06
2023-06-07T10:10:12.593Z,99705.78
2023-06-07T10:12:42.558Z,99706.06
2023-06-07T10:15:16.088Z,99699.22
2023-06-07T10:17:50.881Z,99712.59
2023-06-07T10:20:26.919Z,99701.81
2023-06-07T10:23:00.622Z,99701.06
2023-06-07T10:25:33.084Z,99692.97
2023-06-07T10:28:14.390Z,99696.91
2023-06-07T10:30:50.715Z,99700.22
2023-06-07T10:33:19.849Z,99690.63
2023-06-07T10:35:48.941Z,99687.13
2023-06-07T10:38:17.286Z,99684.50
2023-06-07T10:40:46.049Z,99684.00
2023-06-07T10:43:14.205Z,99688.19
2023-06-07T10:45:43.770Z,99689.31
2023-06-07T10:48:34.861Z,99693.34
2023-06-07T10:51:03.208Z,99681.16
2023-06-07T10:53:52.640Z,99685.56
2023-06-07T10:56:32.139Z,99677.81
2023-06-07T10:59:21.082Z,99680.44
2023-06-07T11:01:53.601Z,99676.81
2023-06-07T11:04:56.535Z,99683.66
2023-06-07T11:07:26.669Z,99677.44
2023-06-07T11:13:13.174Z,99666.50
2023-06-07T11:15:42.175Z,99664.88
2023-06-07T11:18:16.155Z,99664.66
2023-06-07T11:20:52.616Z,99665.25
2023-06-07T11:23:25.257Z,99657.53
2023-06-07T11:25:54.585Z,99658.41
2023-06-07T11:28:28.740Z,99643.56
2023-06-07T11:30:57.975Z,99639.22
2023-06-07T11:33:28.859Z,99643.66
2023-06-07T11:35:57.847Z,99640.53
2023-06-07T11:38:27.427Z,99651.06
2023-06-07T11:40:56.132Z,99632.63
2023-06-07T11:43:26.036Z,99634.81
2023-06-07T11:45:58.555Z,99620.50
2023-06-07T11:48:32.606Z,99626.38
2023-06-07T11:51:04.284Z,99620.50
2023-06-07T11:53:33.118Z,99612.84
2023-06-07T11:56:02.010Z,99610.50
2023-06-07T11:58:30.973Z,99617.00
2023-06-07T12:00:59.955Z,99606.69
2023-06-07T12:03:28.971Z,99616.91
2023-06-07T12:05:59.175Z,99611.53
2023-06-07T12:08:32.758Z,99606.16
2023-06-07T12:11:01.825Z,99603.09
2023-06-07T12:13:32.522Z,99600.84
2023-06-07T12:16:01.516Z,99590.38
2023-06-07T12:18:31.585Z,99597.38
2023-06-07T12:21:06.300Z,99587.44
2023-06-07T12:23:36.844Z,99579.28
2023-06-07T12:26:09.093Z,99583.97
2023-06-07T12:28:37.631Z,99584.59
2023-06-07T12:31:15.604Z,99576.88
2023-06-07T12:33:54.624Z,99562.28
2023-06-07T12:36:24.495Z,99563.19
2023-06-07T12:38:53.683Z,99565.19
2023-06-07T12:41:24.652Z,99565.16
2023-06-07T12:43:52.844Z,99561.00
2023-06-07T12:46:21.250Z,99548.41
2023-06-07T12:48:49.431Z,99539.69
2023-06-07T12:51:17.977Z,99539.59
2023-06-07T12:53:47.624Z,99539.56
2023-06-07T12:56:16.103Z,99542.97
2023-06-07T12:58:44.349Z,99537.38
2023-06-07T13:01:12.745Z,99534.72
2023-06-07T13:03:41.235Z,99543.97
2023-06-07T13:06:09.372Z,99528.69
2023-06-07T13:08:37.473Z,99530.81
2023-06-07T13:11:07.263Z,99524.81
2023-06-07T13:13:35.469Z,99519.44
2023-06-07T13:16:09.048Z,99525.00
2023-06-07T13:18:40.713Z,99534.63
2023-06-07T13:21:09.370Z,99526.28
2023-06-07T13:23:37.573Z,99524.97
2023-06-07T13:26:07.910Z,99523.25
2023-06-07T13:28:36.078Z,99523.50
2023-06-07T13:31:04.372Z,99514.13
2023-06-07T13:33:32.424Z,99510.91
2023-06-07T13:36:00.534Z,99505.16
2023-06-07T13:38:28.551Z,99515.47
2023-06-07T13:40:57.658Z,99505.81
2023-06-07T13:43:51.164Z,99504.94
2023-06-07T13:46:17.743Z,99500.47
2023-06-07T13:48:46.006Z,99498.28
2023-06-07T13:51:14.378Z,99490.50
2023-06-07T13:53:43.508Z,99502.00
2023-06-07T13:56:12.015Z,99510.38
2023-06-07T13:58:42.270Z,99497.91
2023-06-07T14:01:10.996Z,99499.50
2023-06-07T14:03:40.850Z,99488.63
2023-06-07T14:06:09.800Z,99506.06
2023-06-07T14:08:38.164Z,99497.06
2023-06-07T14:11:06.603Z,99495.97
2023-06-07T14:13:35.990Z,99482.81
2023-06-07T14:16:06.011Z,99497.03
2023-06-07T14:18:34.386Z,99492.00
2023-06-07T14:21:02.668Z,99482.84
2023-06-07T14:24:11.584Z,99488.22
2023-06-07T14:26:46.560Z,99483.88
2023-06-07T14:29:35.148Z,99483.00
2023-06-07T14:32:17.575Z,99494.44
2023-06-07T14:34:59.627Z,99479.19
2023-06-07T14:37:30.737Z,99480.28
2023-06-07T14:40:12.258Z,99480.19
2023-06-07T14:42:48.856Z,99487.88
2023-06-07T14:45:30.497Z,99469.47
2023-06-07T14:48:15.148Z,99479.19
2023-06-07T14:50:49.559Z,99476.16
2023-06-07T14:53:31.379Z,99469.06
2023-06-07T14:59:14.446Z,99466.66
2023-06-07T15:02:03.980Z,99478.19
2023-06-07T15:04:46.794Z,99477.03
2023-06-07T15:07:27.564Z,99459.91
2023-06-07T15:10:02.089Z,99467.31
2023-06-07T15:12:43.302Z,99481.16
2023-06-07T15:15:29.782Z,99478.50
2023-06-07T15:18:07.615Z,99472.84
2023-06-07T15:20:47.912Z,99481.59
2023-06-07T15:23:25.413Z,99464.75
2023-06-07T15:26:11.841Z,99460.88
2023-06-07T15:28:50.046Z,99467.47
2023-06-07T15:31:24.834Z,99466.88
2023-06-07T15:34:05.678Z,99465.31
2023-06-07T15:36:48.363Z,99470.09
2023-06-07T15:39:30.141Z,99475.91
2023-06-07T15:42:03.164Z,99459.31
2023-06-07T15:44:42.464Z,99467.91
2023-06-07T15:47:26.358Z,99471.44
2023-06-07T15:50:49.415Z,99464.81
2023-06-07T15:57:04.912Z,99463.78
2023-06-07T15:59:34.156Z,99463.22
2023-06-07T16:02:02.570Z,99461.06
2023-06-07T16:04:31.297Z,99468.38
2023-06-07T16:06:59.631Z,99463.97
2023-06-07T16:09:45.598Z,99449.66
2023-06-07T16:12:15.283Z,99465.25
2023-06-07T16:14:44.473Z,99468.56
2023-06-07T16:17:12.674Z,99463.59
2023-06-07T16:19:40.823Z,99472.28
2023-06-07T16:22:09.114Z,99475.22
2023-06-07T16:24:39.243Z,99470.47
2023-06-07T16:27:08.923Z,99472.53
2023-06-07T16:29:38.384Z,99469.69
2023-06-07T16:32:07.463Z,99474.38
2023-06-07T16:34:35.578Z,99477.41
2023-06-07T16:37:04.454Z,99474.44
2023-06-07T16:39:32.623Z,99484.41
2023-06-07T16:42:00.834Z,99478.78
2023-06-07T16:44:29.056Z,99477.22
2023-06-07T16:46:58.801Z,99485.41
2023-06-07T16:49:27.750Z,99484.09
2023-06-07T16:51:56.094Z,99481.66
2023-06-07T16:54:24.500Z,99473.91
2023-06-07T16:56:52.586Z,99472.88
2023-06-07T16:59:20.818Z,99482.72
2023-06-07T17:01:49.078Z,99488.69
2023-06-07T17:04:19.257Z,99480.06
2023-06-07T17:06:47.496Z,99480.59
2023-06-07T17:09:17.480Z,99480.50
2023-06-07T17:11:45.849Z,99479.38
2023-06-07T17:14:20.047Z,99481.50
2023-06-07T17:16:48.216Z,99474.25
2023-06-07T17:19:16.432Z,99479.34
2023-06-07T17:21:45.971Z,99479.91
2023-06-07T17:24:15.447Z,99482.75
2023-06-07T17:26:43.603Z,99485.28
2023-06-07T17:29:27.381Z,99493.44
2023-06-07T17:31:56.693Z,99485.75
2023-06-07T17:34:24.928Z,99487.84
2023-06-07T17:36:54.856Z,99485.00
2023-06-07T17:39:23.751Z,99487.06
2023-06-07T17:41:51.912Z,99493.47
2023-06-07T17:44:20.363Z,99492.94
2023-06-07T17:46:48.459Z,99488.47
2023-06-07T17:49:16.678Z,99494.81
2023-06-07T17:51:45.778Z,99498.53
2023-06-07T17:54:15.364Z,99500.09
2023-06-07T17:56:44.035Z,99505.81
2023-06-07T17:59:12.163Z,99499.25
2023-06-07T18:01:42.917Z,99492.78
2023-06-07T18:04:12.468Z,99497.53
2023-06-07T18:06:41.146Z,99509.25
2023-06-07T18:09:09.345Z,99511.75
2023-06-07T18:11:38.824Z,99506.75
2023-06-07T18:14:07.811Z,99518.84
2023-06-07T18:16:36.005Z,99520.47
2023-06-07T18:19:04.264Z,99522.81
2023-06-07T18:21:33.094Z,99529.47
2023-06-07T18:24:01.234Z,99531.97
2023-06-07T18:26:29.347Z,99546.75
2023-06-07T18:28:58.821Z,99551.16
2023-06-07T18:31:27.169Z,99549.16
2023-06-07T18:33:55.472Z,99549.66
2023-06-07T18:36:23.545Z,99557.59
2023-06-07T18:38:51.650Z,99564.66
2023-06-07T18:41:19.779Z,99568.34
2023-06-07T18:43:48.042Z,99570.84
2023-06-07T18:46:19.992Z,99573.31
2023-06-07T18:48:48.564Z,99579.03
2023-06-07T18:51:16.689Z,99581.66
2023-06-07T18:53:44.955Z,99584.41
2023-06-07T18:56:13.270Z,99590.50
2023-06-07T18:58:41.610Z,99587.97
2023-06-07T19:01:10.027Z,99593.06
2023-06-07T19:03:39.643Z,99594.63
2023-06-07T19:06:09.382Z,99593.50
2023-06-07T19:08:37.665Z,99595.53
2023-06-07T19:11:05.808Z,99600.59
2023-06-07T19:13:33.994Z,99602.28
2023-06-07T19:16:02.150Z,99609.72
2023-06-07T19:18:30.261Z,99612.56
2023-06-07T19:20:59.872Z,99617.34
2023-06-07T19:23:28.117Z,99616.28
2023-06-07T19:25:56.176Z,99624.25
2023-06-07T19:28:24.350Z,99626.00
2023-06-07T19:30:52.444Z,99617.94
2023-06-07T19:33:20.584Z,99614.91
2023-06-07T19:35:48.696Z,99618.88
2023-06-07T19:38:18.321Z,99619.75
2023-06-07T19:40:46.506Z,99627.72
2023-06-07T19:43:14.661Z,99624.66
2023-06-07T19:45:42.782Z,99624.06
2023-06-07T19:48:11.080Z,99622.56
2023-06-07T19:50:39.270Z,99620.34
2023-06-07T19:53:07.357Z,99615.75
2023-06-07T19:55:36.945Z,99616.19
2023-06-07T19:58:04.972Z,99619.84
2023-06-07T20:00:33.073Z,99618.78
2023-06-07T20:03:01.260Z,99616.47
2023-06-07T20:05:29.427Z,99618.53
2023-06-07T20:07:57.566Z,99623.00
2023-06-07T20:10:26.088Z,99609.75
2023-06-07T20:12:55.565Z,99612.28
2023-06-07T20:15:24.766Z,99616.69
2023-06-07T20:17:52.907Z,99614.38
2023-06-07T20:20:21.833Z,99620.81
2023-06-07T20:22:49.957Z,99615.81
2023-06-07T20:25:18.005Z,99610.03
2023-06-07T20:27:46.035Z,99612.53
2023-06-07T20:30:16.290Z,99611.31
2023-06-07T20:32:44.542Z,99604.38
2023-06-07T20:35:13.940Z,99619.00
2023-06-07T20:37:42.019Z,99614.31
2023-06-07T20:40:10.904Z,99616.28
2023-06-07T20:42:39.019Z,99618.78
2023-06-07T20:45:08.387Z,99628.72
2023-06-07T20:47:37.968Z,99626.38
2023-06-07T20:50:07.201Z,99631.13
2023-06-07T20:52:35.851Z,99621.38
2023-06-07T20:55:04.141Z,99630.03
2023-06-07T20:57:32.289Z,99627.31
2023-06-07T21:00:02.900Z,99622.22
2023-06-07T21:02:31.122Z,99630.47
2023-06-07T21:05:00.960Z,99629.69
2023-06-07T21:07:29.147Z,99628.56
2023-06-07T21:09:57.338Z,99622.28
2023-06-07T21:12:25.688Z,99619.94
2023-06-07T21:14:56.693Z,99619.16
2023-06-07T21:17:25.376Z,99616.44
2023-06-07T21:19:53.937Z,99617.66
2023-06-07T21:22:23.389Z,99616.09
2023-06-07T21:24:51.481Z,99627.06
2023-06-07T21:27:19.637Z,99629.03
2023-06-07T21:29:47.889Z,99616.50
2023-06-07T21:32:15.986Z,99619.25
2023-06-07T21:34:44.105Z,99623.19
2023-06-07T21:37:13.050Z,99631.41
2023-06-07T21:39:42.597Z,99624.78
2023-06-07T21:42:10.901Z,99626.34
2023-06-07T21:44:39.666Z,99625.97
2023-06-07T21:47:08.508Z,99627.53
2023-06-07T21:49:36.575Z,99626.75
2023-06-07T21:52:04.738Z,99635.38
2023-06-07T21:54:32.865Z,99627.56
2023-06-07T21:57:02.699Z,99636.19
2023-06-07T21:59:30.767Z,99627.56
2023-06-07T22:01:58.784Z,99625.22
2023-06-07T22:04:27.127Z,99630.69
2023-06-07T22:06:55.348Z,99619.75
2023-06-07T22:09:23.848Z,99618.19
2023-06-07T22:11:52.794Z,99620.53
2023-06-07T22:14:22.966Z,99617.44
2023-06-07T22:16:51.212Z,99620.56
2023-06-07T22:19:21.039Z,99623.66
2023-06-07T22:21:49.408Z,99611.50
2023-06-07T22:24:19.033Z,99613.13
2023-06-07T22:26:50.151Z,99613.47
2023-06-07T22:29:18.819Z,99619.75
2023-06-07T22:31:48.285Z,99610.00
2023-06-07T22:34:19.428Z,99607.63
2023-06-07T22:36:47.504Z,99611.53
2023-06-07T22:39:16.271Z,99611.16
2023-06-07T22:41:44.610Z,99608.78
2023-06-07T22:44:13.850Z,99611.91
2023-06-07T22:46:42.282Z,99608.00
2023-06-07T22:49:12.792Z,99607.63
2023-06-07T22:51:42.259Z,99612.28
2023-06-07T22:54:10.768Z,99606.78
2023-06-07T22:56:38.844Z,99608.34
2023-06-07T22:59:06.968Z,99605.59
2023-06-07T23:01:35.951Z,99607.16
2023-06-07T23:04:04.389Z,99601.66
2023-06-07T23:06:34.488Z,99603.63
2023-06-07T23:09:03.702Z,99610.66
2023-06-07T23:11:33.540Z,99605.56
2023-06-07T23:14:01.707Z,99609.50
2023-06-07T23:16:30.255Z,99610.28
2023-06-07T23:19:03.579Z,99604.78
2023-06-07T23:21:33.721Z,99592.66
2023-06-07T23:24:01.803Z,99605.94
2023-06-07T23:26:29.970Z,99595.34
2023-06-07T23:28:58.085Z,99590.28
2023-06-07T23:31:26.286Z,99588.31
2023-06-07T23:33:54.380Z,99584.75
2023-06-07T23:36:24.404Z,99583.50
2023-06-07T23:38:53.883Z,99570.19
2023-06-07T23:41:23.152Z,99574.81
2023-06-07T23:43:51.651Z,99576.38
2023-06-07T23:46:19.881Z,99564.28
2023-06-07T23:48:48.056Z,99571.72
2023-06-07T23:51:16.148Z,99566.25
2023-06-07T23:53:44.247Z,99569.38
2023-06-07T23:56:13.710Z,99569.00
2023-06-07T23:58:41.698Z,99572.38
